Date,TemperatureHighF,TemperatureAvgF,TemperatureLowF,DewpointHighF,DewpointAvgF,DewpointLowF,HumidityHigh,HumidityAvg,HumidityLow,PressureMaxIn,PressureMinIn,WindSpeedMaxMPH,WindSpeedAvgMPH,GustSpeedMaxMPH,PrecipitationSumIn
2013-2-1,48,32,22,28,23,18,85,72,45,30.41,30.25,5,0,0,0.01
2013-2-2,45,32,22,28,23,18,85,72,44,30.56,30.39,5,0,0,0.00
2013-2-3,41,28,26,28,9,-100,85,66,59,30.39,30.14,3,-125,0,0.00
2013-2-4,47,26,24,29,-5,-100,86,55,49,30.29,30.01,5,-239,0,0.01
2013-2-5,50,32,23,28,15,-100,86,64,38,30.30,29.77,4,-72,0,0.01
2013-2-6,48,34,26,29,17,-100,85,64,42,30.11,29.80,3,-64,0,0.00
2013-2-7,49,26,24,28,3,-100,85,61,42,30.27,29.98,4,-168,0,0.00
2013-2-8,58,40,29,33,22,-100,81,56,22,29.97,29.49,13,-30,0,0.00
2013-2-9,45,35,30,31,17,-100,85,56,27,29.70,29.58,8,-41,0,0.01
2013-2-10,43,28,30,27,-4,-100,85,45,30,29.89,29.58,7,-210,0,0.00
2013-2-11,39,26,24,27,4,-100,86,60,42,30.19,29.87,4,-147,0,0.09
2013-2-12,39,28,19,17,11,-100,76,54,27,30.36,30.18,5,-20,0,0.01
2013-2-13,44,31,20,20,17,13,78,59,30,30.41,30.21,5,0,0,0.00
2013-2-14,50,34,23,23,19,-100,81,58,28,30.32,30.20,4,-10,0,0.00
2013-2-15,50,34,23,22,14,-100,77,53,20,30.47,30.28,4,-31,0,0.00
2013-2-16,53,35,22,21,18,15,77,54,24,30.51,30.12,5,0,0,0.00
2013-2-17,52,36,28,24,14,-100,74,49,19,30.12,29.66,10,-51,0,0.00
2013-2-18,47,31,21,14,-4,-100,68,33,14,30.17,29.86,5,-105,0,0.00
2013-2-19,48,32,19,17,6,-100,70,42,21,30.08,29.57,6,-52,0,0.00
2013-2-20,49,37,28,22,17,-100,70,49,27,29.59,29.47,4,-10,0,0.00
2013-2-21,50,34,31,24,3,-100,71,40,23,29.84,29.48,5,-138,0,0.00
2013-2-22,43,36,29,22,12,6,60,38,25,30.09,29.85,6,1,0,0.00
2013-2-23,49,32,24,29,18,10,85,58,23,30.07,29.69,7,1,0,0.00
2013-2-24,39,31,21,22,16,9,72,54,39,30.14,29.86,14,2,0,0.08
2013-2-25,46,33,19,20,13,4,77,49,18,30.24,29.92,5,1,0,0.00
2013-2-26,43,29,26,23,-8,-100,68,36,20,30.26,29.80,6,-188,0,0.00
2013-2-27,44,31,20,15,2,-100,71,39,20,30.42,29.99,9,-73,0,0.00
2013-2-28,51,32,19,15,3,-100,70,39,17,30.51,30.34,4,-75,0,0.00